createdAt,value
2018-06-01T00:01:33.792Z,8.83
2018-06-01T00:04:01.356Z,9.93
2018-06-01T00:06:28.910Z,9.53
2018-06-01T00:08:57.244Z,9.33
2018-06-01T00:11:24.792Z,9.40
2018-06-01T00:13:52.357Z,11.53
2018-06-01T00:16:19.907Z,11.87
2018-06-01T00:18:47.472Z,11.33
2018-06-01T00:21:15.360Z,10.60
2018-06-01T00:23:42.930Z,11.60
2018-06-01T00:26:11.268Z,10.53
2018-06-01T00:28:38.828Z,9.70
2018-06-01T00:31:06.380Z,8.67
2018-06-01T00:33:34.040Z,9.57
2018-06-01T00:36:01.595Z,10.40
2018-06-01T00:38:29.175Z,10.27
2018-06-01T00:40:56.720Z,9.90
2018-06-01T00:43:24.288Z,9.13
2018-06-01T00:45:51.840Z,10.53
2018-06-01T00:48:19.407Z,10.93
2018-06-01T00:50:46.959Z,13.83
2018-06-01T00:53:14.527Z,14.00
2018-06-01T00:55:42.086Z,13.90
2018-06-01T00:58:09.660Z,13.60
2018-06-01T01:00:37.225Z,15.00
2018-06-01T01:03:05.593Z,12.97
2018-06-01T01:05:33.135Z,12.77
2018-06-01T01:08:00.679Z,11.80
2018-06-01T01:10:29.012Z,12.57
2018-06-01T01:12:56.557Z,11.50
2018-06-01T01:15:24.133Z,11.93
2018-06-01T01:17:51.679Z,11.87
2018-06-01T01:20:19.257Z,11.67
2018-06-01T01:22:46.823Z,11.90
2018-06-01T01:25:14.402Z,11.37
2018-06-01T01:27:41.956Z,12.00
2018-06-01T01:30:09.532Z,10.43
2018-06-01T01:32:37.079Z,11.57
2018-06-01T01:35:04.654Z,11.30
2018-06-01T01:37:32.207Z,11.53
2018-06-01T01:40:00.556Z,12.40
2018-06-01T01:42:28.870Z,12.27
2018-06-01T01:44:56.434Z,10.97
2018-06-01T01:47:23.979Z,11.40
2018-06-01T01:49:54.351Z,12.20
2018-06-01T01:52:21.917Z,12.80
2018-06-01T01:54:49.489Z,11.80
2018-06-01T01:57:17.811Z,11.80
2018-06-01T01:59:45.374Z,12.27
2018-06-01T02:02:13.690Z,12.10
2018-06-01T02:04:42.030Z,12.60
2018-06-01T02:07:09.589Z,12.67
2018-06-01T02:09:37.152Z,12.03
2018-06-01T02:12:05.463Z,11.50
2018-06-01T02:14:33.790Z,11.37
2018-06-01T02:17:01.331Z,11.43
2018-06-01T02:19:28.876Z,11.87
2018-06-01T02:21:56.450Z,11.60
2018-06-01T02:24:23.998Z,11.37
2018-06-01T02:26:51.562Z,10.63
2018-06-01T02:29:19.105Z,12.30
2018-06-01T02:31:46.663Z,12.17
2018-06-01T02:34:14.291Z,12.23
2018-06-01T02:36:41.954Z,11.80
2018-06-01T02:39:09.576Z,11.60
2018-06-01T02:41:37.293Z,10.93
2018-06-01T02:44:05.615Z,10.70
2018-06-01T02:46:33.942Z,11.50
2018-06-01T02:49:01.489Z,11.87
2018-06-01T02:51:29.056Z,11.07
2018-06-01T02:53:56.613Z,12.10
2018-06-01T02:56:24.172Z,11.40
2018-06-01T02:58:51.718Z,11.00
2018-06-01T03:01:19.283Z,10.70
2018-06-01T03:03:47.631Z,11.10
2018-06-01T03:06:15.958Z,11.50
2018-06-01T03:08:43.506Z,10.60
2018-06-01T03:11:11.875Z,10.07
2018-06-01T03:13:39.434Z,10.97
2018-06-01T03:16:06.995Z,10.33
2018-06-01T03:18:34.551Z,11.83
2018-06-01T03:21:02.136Z,11.90
2018-06-01T03:23:29.684Z,12.17
2018-06-01T03:25:57.228Z,10.87
2018-06-01T03:28:25.559Z,11.40
2018-06-01T03:30:53.108Z,13.43
2018-06-01T03:33:21.440Z,13.17
2018-06-01T03:35:48.982Z,12.70
2018-06-01T03:38:16.551Z,12.50
2018-06-01T03:40:44.094Z,13.97
2018-06-01T03:43:11.652Z,13.60
2018-06-01T03:45:39.199Z,13.33
2018-06-01T03:48:06.754Z,13.23
2018-06-01T03:50:34.294Z,11.67
2018-06-01T03:53:02.626Z,12.90
2018-06-01T03:55:30.163Z,13.50
2018-06-01T03:57:57.719Z,13.37
2018-06-01T04:00:25.283Z,14.27
2018-06-01T04:02:52.892Z,13.80
2018-06-01T04:05:20.451Z,11.23
2018-06-01T04:07:48.021Z,11.00
2018-06-01T04:10:15.566Z,11.57
2018-06-01T04:12:43.135Z,10.50
2018-06-01T04:15:10.693Z,11.60
2018-06-01T04:17:39.070Z,11.33
2018-06-01T04:20:06.614Z,11.40
2018-06-01T04:22:34.222Z,11.40
2018-06-01T04:25:02.540Z,11.83
2018-06-01T04:27:30.896Z,12.23
2018-06-01T04:29:58.439Z,10.47
2018-06-01T04:32:25.998Z,11.90
2018-06-01T04:34:54.346Z,10.90
2018-06-01T04:37:21.906Z,12.13
2018-06-01T04:39:49.528Z,11.20
2018-06-01T04:42:17.058Z,11.60
2018-06-01T04:44:45.391Z,11.90
2018-06-01T04:47:12.946Z,12.60
2018-06-01T04:49:40.515Z,11.03
2018-06-01T04:52:08.831Z,12.33
2018-06-01T04:54:37.164Z,11.00
2018-06-01T04:57:04.713Z,11.93
2018-06-01T04:59:33.041Z,10.93
2018-06-01T05:02:00.582Z,11.40
2018-06-01T05:04:28.143Z,10.20
2018-06-01T05:06:55.680Z,9.77
2018-06-01T05:09:23.239Z,9.90
2018-06-01T05:11:51.550Z,9.70
2018-06-01T05:14:19.903Z,10.27
2018-06-01T05:16:47.452Z,10.13
2018-06-01T05:19:15.007Z,10.23
2018-06-01T05:21:43.331Z,9.80
2018-06-01T05:24:10.907Z,9.73
2018-06-01T05:26:39.210Z,9.17
2018-06-01T05:29:07.525Z,9.60
2018-06-01T05:31:35.088Z,9.10
2018-06-01T05:34:03.415Z,9.30
2018-06-01T05:36:30.958Z,8.80
2018-06-01T05:38:58.522Z,10.53
2018-06-01T05:41:26.074Z,9.50
2018-06-01T05:43:53.668Z,9.40
2018-06-01T05:46:21.213Z,10.03
2018-06-01T05:48:49.546Z,11.20
2018-06-01T05:51:17.078Z,9.73
2018-06-01T05:53:44.666Z,8.83
2018-06-01T05:56:12.206Z,9.70
2018-06-01T05:58:39.747Z,9.47
2018-06-01T06:01:08.069Z,8.37
2018-06-01T06:03:35.605Z,9.60
2018-06-01T06:06:03.170Z,9.53
2018-06-01T06:08:30.715Z,8.83
2018-06-01T06:10:58.289Z,8.80
2018-06-01T06:13:25.846Z,8.77
2018-06-01T06:15:53.412Z,8.83
2018-06-01T06:18:20.957Z,9.47
2018-06-01T06:20:48.532Z,8.27
2018-06-01T06:23:16.835Z,8.07
2018-06-01T06:25:45.354Z,8.67
2018-06-01T06:28:12.719Z,8.23
2018-06-01T06:30:41.042Z,8.60
2018-06-01T06:33:08.578Z,8.20
2018-06-01T06:35:36.147Z,7.77
2018-06-01T06:38:04.490Z,8.57
2018-06-01T06:40:32.815Z,7.70
2018-06-01T06:43:00.362Z,8.47
2018-06-01T06:45:28.680Z,8.10
2018-06-01T06:47:56.997Z,9.00
2018-06-01T06:50:24.555Z,9.23
2018-06-01T06:52:52.874Z,8.07
2018-06-01T06:55:21.570Z,8.57
2018-06-01T06:57:49.902Z,9.10
2018-06-01T07:00:17.471Z,8.30
2018-06-01T07:02:45.342Z,8.30
2018-06-01T07:05:13.675Z,8.70
2018-06-01T07:07:41.218Z,7.80
2018-06-01T07:10:08.795Z,8.53
2018-06-01T07:12:36.344Z,8.60
2018-06-01T07:15:03.905Z,8.67
2018-06-01T07:17:31.462Z,8.70
2018-06-01T07:19:59.770Z,8.40
2018-06-01T07:22:28.119Z,9.03
2018-06-01T07:24:55.668Z,8.57
2018-06-01T07:27:23.990Z,8.80
2018-06-01T07:29:51.539Z,8.33
2018-06-01T07:32:19.869Z,8.30
2018-06-01T07:34:47.406Z,9.23
2018-06-01T07:37:14.967Z,8.97
2018-06-01T07:39:42.510Z,8.50
2018-06-01T07:42:10.070Z,8.47
2018-06-01T07:44:38.377Z,9.23
2018-06-01T07:47:06.703Z,9.20
2018-06-01T07:49:34.237Z,8.43
2018-06-01T07:52:01.804Z,8.60
2018-06-01T07:54:29.379Z,8.10
2018-06-01T07:56:56.914Z,7.93
2018-06-01T07:59:25.218Z,7.87
2018-06-01T08:01:53.542Z,8.30
2018-06-01T08:04:21.135Z,8.77
2018-06-01T08:06:48.697Z,8.67
2018-06-01T08:09:16.298Z,8.63
2018-06-01T08:11:44.606Z,8.43
2018-06-01T08:14:12.147Z,7.93
2018-06-01T08:16:39.699Z,7.80
2018-06-01T08:19:08.015Z,8.30
2018-06-01T08:21:35.575Z,8.00
2018-06-01T08:24:03.123Z,8.87
2018-06-01T08:26:31.458Z,9.10
2018-06-01T08:28:59.006Z,8.30
2018-06-01T08:31:27.311Z,7.97
2018-06-01T08:33:55.638Z,7.30
2018-06-01T08:36:23.180Z,7.60
2018-06-01T08:38:51.515Z,8.27
2018-06-01T08:41:19.822Z,7.90
2018-06-01T08:43:47.383Z,8.17
2018-06-01T08:46:15.698Z,8.30
2018-06-01T08:48:43.258Z,8.47
2018-06-01T08:51:11.572Z,8.70
2018-06-01T08:53:39.918Z,8.40
2018-06-01T08:56:07.464Z,7.87
2018-06-01T08:58:35.022Z,8.53
2018-06-01T09:01:02.568Z,8.30
2018-06-01T09:03:30.139Z,7.70
2018-06-01T09:05:57.696Z,8.40
2018-06-01T09:08:25.263Z,7.80
2018-06-01T09:10:53.575Z,8.10
2018-06-01T09:13:21.148Z,8.03
2018-06-01T09:15:48.718Z,8.40
2018-06-01T09:18:16.276Z,7.67
2018-06-01T09:20:43.809Z,8.10
2018-06-01T09:23:12.190Z,8.80
2018-06-01T09:25:39.734Z,8.23
2018-06-01T09:28:07.317Z,8.27
2018-06-01T09:30:34.866Z,9.73
2018-06-01T09:33:03.198Z,9.20
2018-06-01T09:35:30.743Z,8.20
2018-06-01T09:37:59.088Z,8.33
2018-06-01T09:40:26.641Z,8.40
2018-06-01T09:42:54.966Z,8.97
2018-06-01T09:45:22.516Z,9.27
2018-06-01T09:47:51.199Z,8.40
2018-06-01T09:50:21.601Z,8.27
2018-06-01T09:52:49.137Z,8.40
2018-06-01T09:55:16.695Z,8.23
2018-06-01T09:57:44.235Z,8.70
2018-06-01T10:00:12.565Z,8.50
2018-06-01T10:02:40.156Z,9.63
2018-06-01T10:05:07.692Z,8.77
2018-06-01T10:07:36.002Z,8.03
2018-06-01T10:10:09.861Z,8.97
2018-06-01T10:12:37.397Z,8.10
2018-06-01T10:15:04.962Z,9.20
2018-06-01T10:17:32.515Z,8.73
2018-06-01T10:20:00.062Z,8.30
2018-06-01T10:22:27.599Z,9.20
2018-06-01T10:24:55.158Z,8.00
2018-06-01T10:27:22.691Z,7.20
2018-06-01T10:29:50.304Z,8.10
2018-06-01T10:32:18.614Z,7.30
2018-06-01T10:34:46.933Z,8.40
2018-06-01T10:37:14.464Z,7.83
2018-06-01T10:39:42.039Z,7.73
2018-06-01T10:42:09.570Z,7.83
2018-06-01T10:44:37.123Z,8.23
2018-06-01T10:47:04.661Z,8.47
2018-06-01T10:49:32.266Z,8.53
2018-06-01T10:51:59.776Z,7.50
2018-06-01T10:54:27.371Z,8.60
2018-06-01T10:56:54.890Z,8.13
2018-06-01T10:59:22.438Z,10.63
2018-06-01T11:01:50.015Z,8.43
2018-06-01T11:04:17.553Z,7.87
2018-06-01T11:06:45.105Z,7.70
2018-06-01T11:09:13.406Z,6.97
2018-06-01T11:11:41.726Z,8.63
2018-06-01T11:14:09.263Z,9.40
2018-06-01T11:16:36.825Z,9.00
2018-06-01T11:19:04.362Z,8.13
2018-06-01T11:21:32.719Z,8.83
2018-06-01T11:24:00.244Z,8.60
2018-06-01T11:26:28.575Z,8.40
2018-06-01T11:28:56.113Z,8.20
2018-06-01T11:31:23.676Z,8.83
2018-06-01T11:33:51.214Z,8.63
2018-06-01T11:36:18.771Z,8.60
2018-06-01T11:38:46.313Z,8.10
2018-06-01T11:41:13.872Z,8.70
2018-06-01T11:43:41.421Z,9.30
2018-06-01T11:46:09.000Z,9.80
2018-06-01T11:48:36.550Z,9.60
2018-06-01T11:51:04.110Z,9.03
2018-06-01T11:53:31.648Z,8.50
2018-06-01T11:55:59.215Z,9.50
2018-06-01T11:58:26.778Z,9.37
2018-06-01T12:00:54.513Z,10.90
2018-06-01T12:03:22.846Z,11.17
2018-06-01T12:05:50.407Z,12.90
2018-06-01T12:08:19.108Z,12.67
2018-06-01T12:10:46.684Z,12.23
2018-06-01T12:13:14.229Z,13.23
2018-06-01T12:15:42.661Z,12.40
2018-06-01T12:18:10.234Z,13.73
2018-06-01T12:20:37.784Z,13.10
2018-06-01T12:23:05.351Z,14.93
2018-06-01T12:25:33.670Z,15.70
2018-06-01T12:28:01.284Z,15.20
2018-06-01T12:30:28.834Z,15.40
2018-06-01T12:32:57.167Z,17.10
2018-06-01T12:35:24.715Z,16.53
2018-06-01T12:37:54.012Z,15.07
2018-06-01T12:40:21.773Z,15.00
2018-06-01T12:42:49.335Z,12.60
2018-06-01T12:45:16.883Z,11.50
2018-06-01T12:47:45.215Z,10.60
2018-06-01T12:50:12.770Z,12.50
2018-06-01T12:52:41.107Z,13.20
2018-06-01T12:55:08.680Z,12.07
2018-06-01T12:57:36.246Z,11.67
2018-06-01T13:00:03.819Z,13.60
2018-06-01T13:02:31.380Z,14.03
2018-06-01T13:04:58.918Z,13.30
2018-06-01T13:07:26.473Z,12.23
2018-06-01T13:09:54.019Z,13.80
2018-06-01T13:12:24.628Z,13.40
2018-06-01T13:14:53.016Z,12.80
2018-06-01T13:17:20.747Z,12.10
2018-06-01T13:19:52.991Z,11.00
2018-06-01T13:22:21.340Z,10.07
2018-06-01T13:24:48.873Z,9.30
2018-06-01T13:27:16.433Z,8.80
2018-06-01T13:29:43.987Z,8.70
2018-06-01T13:32:11.550Z,9.63
2018-06-01T13:34:39.869Z,9.60
2018-06-01T13:37:07.407Z,9.70
2018-06-01T13:39:34.969Z,8.80
2018-06-01T13:42:02.512Z,9.83
2018-06-01T13:44:30.075Z,9.07
2018-06-01T13:46:57.614Z,10.10
2018-06-01T13:49:25.187Z,9.50
2018-06-01T13:51:52.731Z,9.73
2018-06-01T13:54:21.062Z,10.00
2018-06-01T13:56:48.614Z,9.97
2018-06-01T13:59:16.937Z,9.13
2018-06-01T14:01:44.483Z,8.83
2018-06-01T14:04:12.039Z,10.40
2018-06-01T14:06:39.595Z,10.40
2018-06-01T14:09:07.162Z,10.97
2018-06-01T14:11:35.867Z,9.73
2018-06-01T14:14:05.289Z,9.47
2018-06-01T14:16:33.627Z,8.93
2018-06-01T14:19:01.199Z,8.57
2018-06-01T14:21:37.734Z,9.30
2018-06-01T14:24:06.435Z,9.37
2018-06-01T14:26:34.003Z,10.03
2018-06-01T14:29:01.585Z,9.60
2018-06-01T14:31:29.891Z,10.23
2018-06-01T14:33:59.675Z,10.40
2018-06-01T14:36:28.277Z,9.87
2018-06-01T14:39:01.558Z,10.10
2018-06-01T14:41:31.979Z,8.80
2018-06-01T14:44:00.431Z,8.40
2018-06-01T14:46:27.971Z,8.67
2018-06-01T14:48:55.531Z,8.90
2018-06-01T14:51:23.065Z,8.30
2018-06-01T14:53:50.690Z,8.50
2018-06-01T14:56:18.234Z,8.53
2018-06-01T14:58:45.815Z,7.63
2018-06-01T15:01:13.375Z,8.03
2018-06-01T15:03:40.932Z,9.70
2018-06-01T15:06:08.503Z,7.97
2018-06-01T15:08:36.111Z,9.10
2018-06-01T15:11:03.674Z,7.83
2018-06-01T15:13:31.232Z,8.20
2018-06-01T15:15:58.798Z,8.70
2018-06-01T15:18:27.107Z,8.53
2018-06-01T15:20:54.668Z,8.43
2018-06-01T15:23:22.219Z,8.50
2018-06-01T15:25:49.787Z,8.37
2018-06-01T15:28:17.326Z,8.40
2018-06-01T15:30:45.659Z,9.30
2018-06-01T15:33:13.206Z,9.57
2018-06-01T15:35:41.532Z,8.93
2018-06-01T15:38:09.088Z,9.10
2018-06-01T15:40:36.656Z,8.10
2018-06-01T15:43:04.195Z,8.37
2018-06-01T15:45:31.759Z,9.23
2018-06-01T15:48:00.073Z,8.87
2018-06-01T15:50:27.752Z,9.90
2018-06-01T15:52:55.327Z,9.50
2018-06-01T15:55:23.659Z,9.60
2018-06-01T15:57:51.257Z,9.50
2018-06-01T16:00:18.838Z,9.30
2018-06-01T16:02:46.441Z,9.07
2018-06-01T16:05:14.007Z,9.13
2018-06-01T16:07:41.830Z,9.30
2018-06-01T16:10:09.431Z,10.03
2018-06-01T16:12:37.140Z,9.43
2018-06-01T16:15:05.449Z,8.70
2018-06-01T16:17:32.997Z,8.50
2018-06-01T16:20:00.543Z,7.73
2018-06-01T16:22:28.103Z,8.83
2018-06-01T16:24:56.416Z,7.60
2018-06-01T16:27:24.745Z,8.00
2018-06-01T16:29:52.298Z,7.60
2018-06-01T16:32:19.846Z,7.73
2018-06-01T16:34:47.379Z,8.17
2018-06-01T16:37:14.937Z,7.93
2018-06-01T16:39:42.476Z,8.73
2018-06-01T16:42:10.035Z,8.47
2018-06-01T16:44:38.339Z,9.50
2018-06-01T16:47:06.670Z,9.23
2018-06-01T16:49:34.983Z,8.80
2018-06-01T16:52:02.540Z,8.67
2018-06-01T16:54:30.095Z,8.80
2018-06-01T16:56:58.430Z,9.20
2018-06-01T16:59:26.008Z,8.20
2018-06-01T17:01:53.561Z,8.67
2018-06-01T17:04:21.110Z,8.70
2018-06-01T17:06:48.686Z,10.10
2018-06-01T17:09:16.312Z,11.20
2018-06-01T17:11:44.645Z,9.60
2018-06-01T17:14:12.187Z,9.53
2018-06-01T17:16:39.761Z,9.67
2018-06-01T17:19:07.301Z,8.97
2018-06-01T17:21:34.864Z,9.57
2018-06-01T17:24:03.175Z,9.80
2018-06-01T17:26:30.753Z,9.03
2018-06-01T17:28:59.057Z,9.90
2018-06-01T17:31:27.390Z,9.60
2018-06-01T17:33:54.929Z,9.13
2018-06-01T17:36:23.229Z,8.97
2018-06-01T17:38:51.561Z,10.17
2018-06-01T17:41:19.107Z,9.37
2018-06-01T17:43:46.658Z,9.90
2018-06-01T17:46:14.199Z,9.63
2018-06-01T17:48:41.834Z,10.30
2018-06-01T17:51:09.385Z,9.63
2018-06-01T17:53:36.968Z,10.37
2018-06-01T17:56:04.518Z,9.67
2018-06-01T17:58:32.074Z,9.70
2018-06-01T18:00:59.631Z,8.53
2018-06-01T18:03:27.186Z,9.87
2018-06-01T18:05:55.488Z,9.70
2018-06-01T18:08:23.814Z,9.70
2018-06-01T18:10:51.353Z,9.90
2018-06-01T18:13:18.911Z,8.80
2018-06-01T18:15:46.457Z,8.93
2018-06-01T18:18:14.018Z,8.73
2018-06-01T18:20:42.328Z,8.37
2018-06-01T18:23:10.654Z,8.43
2018-06-01T18:25:38.199Z,8.43
2018-06-01T18:28:05.767Z,8.83
2018-06-01T18:30:33.314Z,9.07
2018-06-01T18:33:00.874Z,8.67
2018-06-01T18:35:28.422Z,9.87
2018-06-01T18:37:55.974Z,9.80
2018-06-01T18:40:23.525Z,10.10
2018-06-01T18:42:51.081Z,10.40
2018-06-01T18:45:18.624Z,9.00
2018-06-01T18:47:46.962Z,9.20
2018-06-01T18:50:14.511Z,9.33
2018-06-01T18:52:42.078Z,8.60
2018-06-01T18:55:09.655Z,9.47
2018-06-01T18:57:37.233Z,9.93
2018-06-01T19:00:04.803Z,10.90
2018-06-01T19:02:33.113Z,10.37
2018-06-01T19:05:00.928Z,10.00
2018-06-01T19:07:28.474Z,9.43
2018-06-01T19:09:56.810Z,10.60
2018-06-01T19:12:24.367Z,10.23
2018-06-01T19:14:52.707Z,10.73
2018-06-01T19:17:20.967Z,9.90
2018-06-01T19:19:49.297Z,10.70
2018-06-01T19:22:16.851Z,10.53
2018-06-01T19:24:45.198Z,11.17
2018-06-01T19:27:12.750Z,10.37
2018-06-01T19:29:40.334Z,10.13
2018-06-01T19:32:07.882Z,9.77
2018-06-01T19:34:35.475Z,10.33
2018-06-01T19:37:03.022Z,10.30
2018-06-01T19:39:30.581Z,10.40
2018-06-01T19:41:58.961Z,10.30
2018-06-01T19:44:27.286Z,10.80
2018-06-01T19:46:55.282Z,9.90
2018-06-01T19:49:22.863Z,11.03
2018-06-01T19:51:50.406Z,11.57
2018-06-01T19:54:17.974Z,10.50
2018-06-01T19:56:45.529Z,11.53
2018-06-01T19:59:13.094Z,10.27
2018-06-01T20:01:40.639Z,11.30
2018-06-01T20:04:08.198Z,11.13
2018-06-01T20:06:35.748Z,11.90
2018-06-01T20:09:03.292Z,11.07
2018-06-01T20:11:30.858Z,11.50
2018-06-01T20:13:58.401Z,12.13
2018-06-01T20:16:25.972Z,12.07
2018-06-01T20:18:53.523Z,12.63
2018-06-01T20:21:21.091Z,13.40
2018-06-01T20:23:48.640Z,13.73
2018-06-01T20:26:16.203Z,13.10
2018-06-01T20:28:44.743Z,13.50
2018-06-01T20:31:12.325Z,15.03
2018-06-01T20:33:39.910Z,15.10
2018-06-01T20:36:07.487Z,14.53
2018-06-01T20:38:36.507Z,14.47
2018-06-01T20:41:04.070Z,15.10
2018-06-01T20:43:32.403Z,14.80
2018-06-01T20:45:59.974Z,14.27
2018-06-01T20:48:27.520Z,14.40
2018-06-01T20:50:55.091Z,15.10
2018-06-01T20:53:22.652Z,15.03
2018-06-01T20:55:50.225Z,15.23
2018-06-01T20:58:17.832Z,15.73
2018-06-01T21:00:45.406Z,14.30
2018-06-01T21:03:12.948Z,15.77
2018-06-01T21:05:41.270Z,14.37
2018-06-01T21:08:08.818Z,15.03
2018-06-01T21:10:37.159Z,13.03
2018-06-01T21:13:04.744Z,13.40
2018-06-01T21:15:32.320Z,15.33
2018-06-01T21:17:59.859Z,14.90
2018-06-01T21:20:27.557Z,14.30
2018-06-01T21:22:55.106Z,15.27
2018-06-01T21:25:22.641Z,14.73
2018-06-01T21:27:50.977Z,15.83
2018-06-01T21:30:18.523Z,15.10
2018-06-01T21:32:46.854Z,16.30
2018-06-01T21:35:14.398Z,15.40
2018-06-01T21:37:41.963Z,15.30
2018-06-01T21:40:09.510Z,17.17
2018-06-01T21:42:37.127Z,14.97
2018-06-01T21:45:04.667Z,15.03
2018-06-01T21:47:32.221Z,14.43
2018-06-01T21:49:59.761Z,15.10
2018-06-01T21:52:27.327Z,15.60
2018-06-01T21:54:54.878Z,13.37
2018-06-01T21:57:22.446Z,14.10
2018-06-01T21:59:49.986Z,15.40
2018-06-01T22:02:17.560Z,16.20
2018-06-01T22:04:45.099Z,16.67
2018-06-01T22:07:12.670Z,15.13
2018-06-01T22:09:40.219Z,16.07
2018-06-01T22:12:07.778Z,18.10
2018-06-01T22:14:36.102Z,17.43
2018-06-01T22:17:03.665Z,16.60
2018-06-01T22:19:31.379Z,16.57
2018-06-01T22:21:58.967Z,16.80
2018-06-01T22:24:27.280Z,17.03
2018-06-01T22:26:54.842Z,16.90
2018-06-01T22:29:23.194Z,17.10
2018-06-01T22:31:50.754Z,17.43
2018-06-01T22:34:18.295Z,18.50
2018-06-01T22:36:46.647Z,18.40
2018-06-01T22:39:14.294Z,17.83
2018-06-01T22:41:44.377Z,16.47
2018-06-01T22:44:11.950Z,16.87
2018-06-01T22:46:39.958Z,19.87
2018-06-01T22:49:07.606Z,18.63
2018-06-01T22:51:35.141Z,18.10
2018-06-01T22:54:02.695Z,20.27
2018-06-01T22:56:30.230Z,19.10
2018-06-01T22:58:58.557Z,19.80
2018-06-01T23:01:26.102Z,19.90
2018-06-01T23:03:53.673Z,19.97
2018-06-01T23:06:21.218Z,19.90
2018-06-01T23:08:48.778Z,19.23
2018-06-01T23:11:17.087Z,19.13
2018-06-01T23:13:44.647Z,19.53
2018-06-01T23:16:12.968Z,20.40
2018-06-01T23:18:40.532Z,19.97
2018-06-01T23:21:08.847Z,20.67
2018-06-01T23:23:37.403Z,19.53
2018-06-01T23:26:04.977Z,19.70
2018-06-01T23:28:32.535Z,19.70
2018-06-01T23:31:00.074Z,20.87
2018-06-01T23:33:27.633Z,19.20
2018-06-01T23:35:55.938Z,20.33
2018-06-01T23:38:23.541Z,19.90
2018-06-01T23:40:51.111Z,20.07
2018-06-01T23:43:18.676Z,20.47
2018-06-01T23:45:46.251Z,19.10
2018-06-01T23:48:13.814Z,18.60
2018-06-01T23:50:42.121Z,18.60
2018-06-01T23:53:10.453Z,19.50
2018-06-01T23:55:37.999Z,20.27
2018-06-01T23:58:06.309Z,20.00
